createdAt,value
2022-10-18T00:01:44.196Z,14.75
2022-10-18T00:05:47.393Z,14.73
2022-10-18T00:09:48.861Z,14.72
2022-10-18T00:13:50.668Z,14.71
2022-10-18T00:17:52.363Z,14.66
2022-10-18T00:21:53.887Z,14.67
2022-10-18T00:26:23.528Z,14.64
2022-10-18T00:30:25.349Z,14.52
2022-10-18T00:34:26.938Z,14.54
2022-10-18T00:38:28.501Z,14.50
2022-10-18T00:42:32.823Z,14.46
2022-10-18T00:46:37.518Z,14.42
2022-10-18T00:50:40.401Z,14.44
2022-10-18T00:54:44.381Z,14.35
2022-10-18T00:58:48.428Z,14.34
2022-10-18T01:02:49.992Z,14.37
2022-10-18T01:07:01.448Z,14.34
2022-10-18T01:11:26.598Z,14.34
2022-10-18T01:15:32.800Z,14.25
2022-10-18T01:20:17.691Z,14.20
2022-10-18T01:24:51.921Z,14.15
2022-10-18T01:29:08.766Z,14.10
2022-10-18T01:33:18.963Z,14.06
2022-10-18T01:37:22.507Z,14.07
2022-10-18T01:41:25.927Z,14.02
2022-10-18T01:45:28.484Z,14.00
2022-10-18T01:49:30.012Z,14.03
2022-10-18T01:53:33.866Z,13.93
2022-10-18T01:58:02.199Z,13.92
2022-10-18T02:02:23.633Z,13.98
2022-10-18T02:06:31.284Z,13.96
2022-10-18T02:10:41.133Z,14.03
2022-10-18T02:14:44.987Z,14.04
2022-10-18T02:18:58.730Z,13.95
2022-10-18T02:23:01.579Z,13.94
2022-10-18T02:27:03.468Z,13.87
2022-10-18T02:31:20.244Z,13.93
2022-10-18T02:35:37.506Z,13.92
2022-10-18T02:39:50.298Z,13.85
2022-10-18T02:43:52.094Z,13.75
2022-10-18T02:47:53.696Z,13.79
2022-10-18T02:51:55.277Z,13.77
2022-10-18T02:55:57.003Z,13.69
2022-10-18T02:59:58.574Z,13.68
2022-10-18T03:04:00.179Z,13.63
2022-10-18T03:08:01.644Z,13.59
2022-10-18T03:12:03.350Z,13.55
2022-10-18T03:16:05.210Z,13.55
2022-10-18T03:20:07.397Z,13.61
2022-10-18T03:24:08.954Z,13.66
2022-10-18T03:28:10.645Z,13.63
2022-10-18T03:32:12.122Z,13.63
2022-10-18T03:36:14.440Z,13.56
2022-10-18T03:40:16.356Z,13.44
2022-10-18T03:44:17.962Z,13.47
2022-10-18T03:48:19.434Z,13.47
2022-10-18T03:52:20.991Z,13.45
2022-10-18T03:56:22.508Z,13.43
2022-10-18T04:00:24.009Z,13.53
2022-10-18T04:04:25.548Z,13.68
2022-10-18T04:08:27.339Z,13.74
2022-10-18T04:12:29.142Z,13.70
2022-10-18T04:16:30.846Z,13.84
2022-10-18T04:20:32.419Z,13.94
2022-10-18T04:24:33.936Z,13.87
2022-10-18T04:28:39.820Z,13.92
2022-10-18T04:32:41.583Z,13.98
2022-10-18T04:36:43.098Z,13.98
2022-10-18T04:40:44.752Z,14.07
2022-10-18T04:44:46.300Z,14.09
2022-10-18T04:48:47.938Z,13.97
2022-10-18T04:56:54.158Z,13.95
2022-10-18T05:00:55.776Z,13.94
2022-10-18T05:04:57.479Z,14.10
2022-10-18T05:26:23.592Z,14.12
2022-10-18T05:30:26.889Z,14.12
2022-10-18T05:34:31.985Z,14.22
2022-10-18T05:38:33.626Z,14.27
2022-10-18T05:42:35.288Z,14.26
2022-10-18T05:46:37.044Z,14.32
2022-10-18T05:50:40.362Z,14.33
2022-10-18T05:54:42.109Z,14.37
2022-10-18T05:58:43.748Z,14.45
2022-10-18T06:02:45.409Z,14.60
2022-10-18T06:06:47.072Z,14.59
2022-10-18T06:10:48.749Z,14.73
2022-10-18T06:14:50.340Z,14.56
2022-10-18T06:18:54.773Z,14.54
2022-10-18T06:22:56.460Z,14.58
2022-10-18T06:26:58.162Z,14.52
2022-10-18T06:30:59.924Z,14.95
2022-10-18T06:35:01.677Z,14.94
2022-10-18T06:39:03.472Z,14.90
2022-10-18T06:43:20.192Z,14.74
2022-10-18T06:47:22.918Z,14.85
2022-10-18T06:51:24.702Z,14.73
2022-10-18T06:55:32.340Z,14.71
2022-10-18T07:00:27.789Z,14.82
2022-10-18T07:04:30.305Z,14.93
2022-10-18T07:08:32.901Z,15.12
2022-10-18T07:12:34.590Z,15.10
2022-10-18T07:16:36.285Z,15.22
2022-10-18T07:20:37.813Z,15.27
2022-10-18T07:24:39.416Z,15.37
2022-10-18T07:28:41.356Z,15.40
2022-10-18T07:32:46.261Z,15.43
2022-10-18T07:36:57.151Z,15.55
2022-10-18T07:41:00.426Z,15.78
2022-10-18T07:45:05.975Z,15.89
2022-10-18T07:49:38.336Z,16.00
2022-10-18T07:54:13.928Z,15.94
2022-10-18T07:58:15.468Z,15.95
2022-10-18T08:02:16.947Z,16.09
2022-10-18T08:07:14.025Z,16.13
2022-10-18T08:11:44.497Z,16.16
2022-10-18T08:21:51.543Z,15.97
2022-10-18T08:25:53.315Z,16.15
2022-10-18T08:29:54.878Z,16.70
2022-10-18T08:34:00.025Z,17.04
2022-10-18T08:38:01.803Z,17.17
2022-10-18T08:42:25.110Z,17.44
2022-10-18T08:46:44.505Z,17.46
2022-10-18T08:56:54.431Z,17.02
2022-10-18T09:00:55.843Z,16.89
2022-10-18T09:05:47.600Z,16.46
2022-10-18T09:10:26.550Z,16.82
2022-10-18T09:15:18.365Z,16.88
2022-10-18T09:19:46.930Z,17.02
2022-10-18T09:24:14.900Z,17.18
2022-10-18T09:28:41.768Z,17.65
2022-10-18T09:33:35.620Z,18.14
2022-10-18T09:38:04.282Z,18.30
2022-10-18T09:42:17.399Z,18.02
2022-10-18T09:47:22.579Z,18.13
2022-10-18T09:57:49.278Z,18.17
2022-10-18T10:01:54.003Z,18.32
2022-10-18T10:06:38.899Z,18.76
2022-10-18T10:11:25.529Z,18.60
2022-10-18T10:15:31.212Z,19.68
2022-10-18T10:19:59.248Z,19.98
2022-10-18T10:24:27.366Z,20.32
2022-10-18T10:28:41.211Z,20.30
2022-10-18T10:32:47.493Z,19.78
2022-10-18T10:36:54.590Z,19.66
2022-10-18T10:41:24.340Z,19.08
2022-10-18T10:46:16.953Z,18.55
2022-10-18T10:50:28.213Z,18.50
2022-10-18T10:54:35.784Z,18.05
2022-10-18T10:58:40.549Z,17.96
2022-10-18T11:08:58.638Z,17.40
2022-10-18T11:13:31.803Z,17.34
2022-10-18T11:17:40.240Z,17.34
2022-10-18T11:21:42.834Z,17.20
2022-10-18T11:26:03.111Z,16.73
2022-10-18T11:30:35.498Z,16.73
2022-10-18T11:34:52.347Z,16.82
2022-10-18T11:39:09.097Z,16.85
2022-10-18T11:43:30.260Z,16.90
2022-10-18T11:48:17.604Z,17.01
2022-10-18T11:52:19.021Z,17.14
2022-10-18T11:56:37.447Z,17.19
2022-10-18T12:01:00.123Z,17.09
2022-10-18T12:05:22.456Z,17.07
2022-10-18T12:09:35.473Z,17.00
2022-10-18T12:13:53.473Z,16.95
2022-10-18T12:17:59.835Z,16.99
2022-10-18T12:22:14.235Z,16.78
2022-10-18T12:26:17.065Z,16.81
2022-10-18T12:30:54.268Z,16.90
2022-10-18T12:35:11.335Z,16.85
2022-10-18T12:39:37.670Z,16.67
2022-10-18T12:44:00.795Z,16.60
2022-10-18T12:48:06.922Z,16.77
2022-10-18T12:52:22.288Z,16.89
2022-10-18T12:56:30.573Z,17.08
2022-10-18T13:00:32.372Z,17.04
2022-10-18T13:04:35.256Z,16.83
2022-10-18T13:08:41.800Z,16.91
2022-10-18T13:12:43.364Z,16.94
2022-10-18T13:16:57.161Z,16.91
2022-10-18T13:21:19.154Z,16.89
2022-10-18T13:25:23.636Z,17.07
2022-10-18T13:29:41.249Z,17.02
2022-10-18T13:33:43.086Z,17.00
2022-10-18T13:37:58.292Z,16.97
2022-10-18T13:42:00.745Z,16.87
2022-10-18T13:46:05.459Z,16.73
2022-10-18T13:50:30.735Z,16.76
2022-10-18T13:54:35.498Z,16.82
2022-10-18T13:59:14.342Z,16.85
2022-10-18T14:08:10.246Z,16.62
2022-10-18T14:12:31.936Z,16.67
2022-10-18T14:17:03.972Z,16.80
2022-10-18T14:21:21.105Z,17.08
2022-10-18T14:25:29.660Z,17.23
2022-10-18T14:29:31.339Z,17.25
2022-10-18T14:33:43.036Z,17.07
2022-10-18T14:37:47.698Z,17.51
2022-10-18T14:41:52.057Z,18.03
2022-10-18T14:45:53.701Z,17.64
2022-10-18T14:49:57.636Z,17.50
2022-10-18T14:54:00.125Z,17.48
2022-10-18T14:58:02.700Z,17.26
2022-10-18T15:02:14.309Z,16.80
2022-10-18T15:06:20.065Z,16.77
2022-10-18T15:10:33.502Z,16.70
2022-10-18T15:14:36.565Z,16.68
2022-10-18T15:18:38.084Z,16.59
2022-10-18T15:22:39.670Z,16.57
2022-10-18T15:26:44.568Z,16.55
2022-10-18T15:30:46.261Z,16.56
2022-10-18T15:34:47.946Z,16.52
2022-10-18T15:38:50.111Z,16.47
2022-10-18T15:42:57.611Z,16.32
2022-10-18T15:47:20.468Z,16.26
2022-10-18T15:51:49.190Z,16.19
2022-10-18T15:56:00.659Z,16.15
2022-10-18T16:00:06.826Z,16.03
2022-10-18T16:04:19.990Z,15.90
2022-10-18T16:08:30.214Z,15.74
2022-10-18T16:12:31.661Z,15.65
2022-10-18T16:16:33.540Z,15.50
2022-10-18T16:20:35.479Z,15.38
2022-10-18T16:24:36.969Z,15.29
2022-10-18T16:28:38.768Z,15.28
2022-10-18T16:32:40.997Z,15.20
2022-10-18T16:36:42.986Z,15.12
2022-10-18T16:40:45.962Z,15.17
2022-10-18T16:44:48.932Z,15.21
2022-10-18T16:48:51.725Z,15.18
2022-10-18T16:52:53.383Z,15.11
2022-10-18T16:56:54.912Z,15.11
2022-10-18T17:00:58.025Z,15.14
2022-10-18T17:04:59.702Z,15.19
2022-10-18T17:09:01.445Z,15.20
2022-10-18T17:13:03.046Z,15.11
2022-10-18T17:17:04.728Z,15.06
2022-10-18T17:21:06.403Z,15.11
2022-10-18T17:25:08.431Z,15.21
2022-10-18T17:29:10.151Z,15.20
2022-10-18T17:33:13.053Z,15.06
2022-10-18T17:37:15.375Z,14.97
2022-10-18T17:41:17.122Z,14.96
2022-10-18T17:45:20.215Z,14.91
2022-10-18T17:49:22.171Z,14.79
2022-10-18T17:53:28.436Z,14.65
2022-10-18T17:57:30.316Z,14.55
2022-10-18T18:01:32.295Z,14.45
2022-10-18T18:05:34.342Z,14.41
2022-10-18T18:09:36.311Z,14.46
2022-10-18T18:13:38.088Z,14.52
2022-10-18T18:17:56.049Z,14.55
2022-10-18T18:21:59.293Z,14.62
2022-10-18T18:26:00.812Z,14.69
2022-10-18T18:30:02.436Z,14.72
2022-10-18T18:34:03.938Z,14.69
2022-10-18T18:38:05.433Z,14.70
2022-10-18T18:42:07.397Z,14.77
2022-10-18T18:46:09.472Z,14.81
2022-10-18T18:50:11.144Z,14.84
2022-10-18T18:54:14.301Z,14.87
2022-10-18T18:58:16.671Z,14.78
2022-10-18T19:02:18.253Z,14.64
2022-10-18T19:06:25.467Z,14.62
2022-10-18T19:10:30.460Z,14.60
2022-10-18T19:14:36.447Z,14.63
2022-10-18T19:18:39.361Z,14.66
2022-10-18T19:22:41.749Z,14.67
2022-10-18T19:26:48.653Z,14.66
2022-10-18T19:30:50.600Z,14.61
2022-10-18T19:34:52.782Z,14.57
2022-10-18T19:39:30.101Z,14.54
2022-10-18T19:44:22.221Z,14.49
2022-10-18T19:48:24.004Z,14.44
2022-10-18T19:52:42.010Z,14.86
2022-10-18T20:02:44.699Z,14.48
2022-10-18T20:06:48.709Z,14.16
2022-10-18T20:10:50.531Z,13.91
2022-10-18T20:15:27.524Z,13.71
2022-10-18T20:26:06.925Z,13.31
2022-10-18T20:30:45.408Z,13.19
2022-10-18T20:34:47.128Z,13.09
2022-10-18T20:39:40.328Z,12.97
2022-10-18T20:44:34.780Z,12.86
2022-10-18T20:48:38.839Z,12.79
2022-10-18T20:52:40.455Z,12.71
2022-10-18T20:56:42.274Z,12.66
2022-10-18T21:00:43.745Z,12.60
2022-10-18T21:04:48.882Z,12.74
2022-10-18T21:09:05.769Z,12.85
2022-10-18T21:13:35.518Z,12.97
2022-10-18T21:17:37.096Z,13.03
2022-10-18T21:21:42.236Z,13.00
2022-10-18T21:25:45.388Z,13.11
2022-10-18T21:29:50.096Z,13.24
2022-10-18T21:34:28.207Z,13.40
2022-10-18T21:38:31.059Z,13.48
2022-10-18T21:42:32.835Z,13.63
2022-10-18T21:46:35.200Z,13.61
2022-10-18T21:50:36.669Z,13.52
2022-10-18T21:54:38.132Z,13.65
2022-10-18T21:58:40.318Z,13.79
2022-10-18T22:02:42.072Z,13.77
2022-10-18T22:06:43.663Z,13.80
2022-10-18T22:10:45.390Z,13.76
2022-10-18T22:14:47.121Z,13.76
2022-10-18T22:18:50.509Z,13.84
2022-10-18T22:22:53.939Z,13.81
2022-10-18T22:26:56.063Z,13.76
2022-10-18T22:30:57.781Z,13.67
2022-10-18T22:34:59.325Z,13.60
2022-10-18T22:39:00.908Z,13.68
2022-10-18T22:43:02.420Z,13.77
2022-10-18T22:47:03.917Z,13.72
2022-10-18T22:51:05.853Z,13.74
2022-10-18T22:55:07.961Z,13.75
2022-10-18T22:59:09.554Z,13.69
2022-10-18T23:03:11.572Z,13.55
2022-10-18T23:07:13.145Z,13.45
2022-10-18T23:11:15.133Z,13.34
2022-10-18T23:15:16.698Z,13.19
2022-10-18T23:19:18.210Z,13.08
2022-10-18T23:23:19.733Z,12.95
2022-10-18T23:27:21.224Z,12.84
2022-10-18T23:31:26.212Z,12.74
2022-10-18T23:35:28.871Z,12.69
2022-10-18T23:39:30.528Z,12.72
2022-10-18T23:43:32.505Z,12.73
2022-10-18T23:47:34.342Z,12.74
2022-10-18T23:51:36.191Z,12.73
2022-10-18T23:55:37.892Z,12.60
2022-10-18T23:59:39.356Z,12.49
